sensor_id;sensor_type;location;lat;lon;timestamp;temperature;humidity
19483;DHT22;9882;51.166;6.992;2023-04-25T00:01:32;9.30;99.90
19483;DHT22;9882;51.166;6.992;2023-04-25T00:04:03;9.30;99.90
19483;DHT22;9882;51.166;6.992;2023-04-25T00:06:34;9.30;99.90
19483;DHT22;9882;51.166;6.992;2023-04-25T00:09:04;9.30;99.90
19483;DHT22;9882;51.166;6.992;2023-04-25T00:11:34;9.30;99.90
19483;DHT22;9882;51.166;6.992;2023-04-25T00:14:04;9.30;99.90
19483;DHT22;9882;51.166;6.992;2023-04-25T00:16:33;9.30;99.90
19483;DHT22;9882;51.166;6.992;2023-04-25T00:19:02;8.90;99.90
19483;DHT22;9882;51.166;6.992;2023-04-25T00:21:31;9.10;99.90
19483;DHT22;9882;51.166;6.992;2023-04-25T00:24:01;9.10;99.90
19483;DHT22;9882;51.166;6.992;2023-04-25T00:26:30;9.00;99.90
19483;DHT22;9882;51.166;6.992;2023-04-25T00:28:58;8.80;99.90
19483;DHT22;9882;51.166;6.992;2023-04-25T00:31:27;8.90;99.90
19483;DHT22;9882;51.166;6.992;2023-04-25T00:33:56;9.00;99.90
19483;DHT22;9882;51.166;6.992;2023-04-25T00:36:25;8.90;99.90
19483;DHT22;9882;51.166;6.992;2023-04-25T00:38:54;8.70;99.90
19483;DHT22;9882;51.166;6.992;2023-04-25T00:41:25;8.80;99.90
19483;DHT22;9882;51.166;6.992;2023-04-25T00:43:54;8.80;99.90
19483;DHT22;9882;51.166;6.992;2023-04-25T00:46:23;8.40;99.90
19483;DHT22;9882;51.166;6.992;2023-04-25T00:48:51;8.50;99.90
19483;DHT22;9882;51.166;6.992;2023-04-25T00:51:21;8.40;99.90
19483;DHT22;9882;51.166;6.992;2023-04-25T00:53:50;8.30;99.90
19483;DHT22;9882;51.166;6.992;2023-04-25T00:56:19;8.40;99.90
19483;DHT22;9882;51.166;6.992;2023-04-25T00:58:53;8.20;99.90
19483;DHT22;9882;51.166;6.992;2023-04-25T01:01:23;7.70;99.90
19483;DHT22;9882;51.166;6.992;2023-04-25T01:03:53;7.70;99.90
19483;DHT22;9882;51.166;6.992;2023-04-25T01:06:22;7.80;99.90
19483;DHT22;9882;51.166;6.992;2023-04-25T01:08:51;7.70;99.90
19483;DHT22;9882;51.166;6.992;2023-04-25T01:11:20;7.60;99.90
19483;DHT22;9882;51.166;6.992;2023-04-25T01:13:50;7.70;99.90
19483;DHT22;9882;51.166;6.992;2023-04-25T01:16:19;7.30;99.90
19483;DHT22;9882;51.166;6.992;2023-04-25T01:18:48;7.30;99.90
19483;DHT22;9882;51.166;6.992;2023-04-25T01:21:19;7.30;99.90
19483;DHT22;9882;51.166;6.992;2023-04-25T01:23:48;7.40;99.90
19483;DHT22;9882;51.166;6.992;2023-04-25T01:26:17;7.40;99.90
19483;DHT22;9882;51.166;6.992;2023-04-25T01:28:45;7.30;99.90
19483;DHT22;9882;51.166;6.992;2023-04-25T01:31:15;7.20;99.90
19483;DHT22;9882;51.166;6.992;2023-04-25T01:33:45;7.20;99.90
19483;DHT22;9882;51.166;6.992;2023-04-25T01:36:14;7.40;99.90
19483;DHT22;9882;51.166;6.992;2023-04-25T01:38:44;7.30;99.90
19483;DHT22;9882;51.166;6.992;2023-04-25T01:41:15;7.50;99.90
19483;DHT22;9882;51.166;6.992;2023-04-25T01:43:45;7.20;99.90
19483;DHT22;9882;51.166;6.992;2023-04-25T01:46:14;7.20;99.90
19483;DHT22;9882;51.166;6.992;2023-04-25T01:48:43;7.10;99.90
19483;DHT22;9882;51.166;6.992;2023-04-25T01:51:12;7.50;99.90
19483;DHT22;9882;51.166;6.992;2023-04-25T01:53:41;7.40;99.90
19483;DHT22;9882;51.166;6.992;2023-04-25T01:57:24;7.30;99.90
19483;DHT22;9882;51.166;6.992;2023-04-25T02:01:06;7.00;99.90
19483;DHT22;9882;51.166;6.992;2023-04-25T02:04:47;7.00;99.90
19483;DHT22;9882;51.166;6.992;2023-04-25T02:08:31;7.10;99.90
19483;DHT22;9882;51.166;6.992;2023-04-25T02:12:14;7.00;99.90
19483;DHT22;9882;51.166;6.992;2023-04-25T02:15:57;7.10;99.90
19483;DHT22;9882;51.166;6.992;2023-04-25T02:19:39;7.00;99.90
19483;DHT22;9882;51.166;6.992;2023-04-25T02:23:20;6.90;99.90
19483;DHT22;9882;51.166;6.992;2023-04-25T02:27:02;7.30;99.90
19483;DHT22;9882;51.166;6.992;2023-04-25T02:30:45;7.40;99.90
19483;DHT22;9882;51.166;6.992;2023-04-25T02:34:29;7.00;99.90
19483;DHT22;9882;51.166;6.992;2023-04-25T02:38:12;6.90;99.90
19483;DHT22;9882;51.166;6.992;2023-04-25T02:41:53;7.00;99.90
19483;DHT22;9882;51.166;6.992;2023-04-25T02:45:34;6.80;99.90
19483;DHT22;9882;51.166;6.992;2023-04-25T02:49:16;6.90;99.90
19483;DHT22;9882;51.166;6.992;2023-04-25T02:52:58;6.70;99.90
19483;DHT22;9882;51.166;6.992;2023-04-25T02:56:40;6.80;99.90
19483;DHT22;9882;51.166;6.992;2023-04-25T03:00:22;6.70;99.90
19483;DHT22;9882;51.166;6.992;2023-04-25T03:04:04;7.00;99.90
19483;DHT22;9882;51.166;6.992;2023-04-25T03:07:46;6.80;99.90
19483;DHT22;9882;51.166;6.992;2023-04-25T03:11:30;7.00;99.90
19483;DHT22;9882;51.166;6.992;2023-04-25T03:15:13;6.80;99.90
19483;DHT22;9882;51.166;6.992;2023-04-25T03:18:54;6.70;99.90
19483;DHT22;9882;51.166;6.992;2023-04-25T03:22:36;6.80;99.90
19483;DHT22;9882;51.166;6.992;2023-04-25T03:26:18;7.00;99.90
19483;DHT22;9882;51.166;6.992;2023-04-25T03:30:00;6.70;99.90
19483;DHT22;9882;51.166;6.992;2023-04-25T03:33:43;6.80;99.90
19483;DHT22;9882;51.166;6.992;2023-04-25T03:37:25;6.80;99.90
19483;DHT22;9882;51.166;6.992;2023-04-25T03:41:07;6.60;99.90
19483;DHT22;9882;51.166;6.992;2023-04-25T03:44:49;6.90;99.90
19483;DHT22;9882;51.166;6.992;2023-04-25T03:48:33;6.90;99.90
19483;DHT22;9882;51.166;6.992;2023-04-25T03:52:16;7.10;99.90
19483;DHT22;9882;51.166;6.992;2023-04-25T03:55:59;6.90;99.90
19483;DHT22;9882;51.166;6.992;2023-04-25T03:59:41;7.00;99.90
19483;DHT22;9882;51.166;6.992;2023-04-25T04:03:23;6.80;99.90
19483;DHT22;9882;51.166;6.992;2023-04-25T04:07:08;6.80;99.90
19483;DHT22;9882;51.166;6.992;2023-04-25T04:10:50;6.80;99.90
19483;DHT22;9882;51.166;6.992;2023-04-25T05:49:54;6.40;99.90
19483;DHT22;9882;51.166;6.992;2023-04-25T05:52:43;6.30;99.90
19483;DHT22;9882;51.166;6.992;2023-04-25T05:55:24;6.40;99.90
19483;DHT22;9882;51.166;6.992;2023-04-25T05:57:53;6.30;99.90
19483;DHT22;9882;51.166;6.992;2023-04-25T06:00:22;6.40;99.90
19483;DHT22;9882;51.166;6.992;2023-04-25T06:02:51;6.40;99.90
19483;DHT22;9882;51.166;6.992;2023-04-25T06:05:21;6.40;99.90
19483;DHT22;9882;51.166;6.992;2023-04-25T06:07:50;6.60;99.90
19483;DHT22;9882;51.166;6.992;2023-04-25T06:10:18;6.40;99.90
19483;DHT22;9882;51.166;6.992;2023-04-25T06:12:47;6.40;99.90
19483;DHT22;9882;51.166;6.992;2023-04-25T06:15:17;6.60;99.90
19483;DHT22;9882;51.166;6.992;2023-04-25T06:17:48;6.70;99.90
19483;DHT22;9882;51.166;6.992;2023-04-25T06:20:17;6.60;99.90
19483;DHT22;9882;51.166;6.992;2023-04-25T06:22:51;6.50;99.90
19483;DHT22;9882;51.166;6.992;2023-04-25T06:25:26;6.60;99.90
19483;DHT22;9882;51.166;6.992;2023-04-25T06:27:55;6.80;99.90
19483;DHT22;9882;51.166;6.992;2023-04-25T06:30:24;6.80;99.90
19483;DHT22;9882;51.166;6.992;2023-04-25T06:32:58;6.90;99.90
19483;DHT22;9882;51.166;6.992;2023-04-25T06:35:29;7.00;99.90
19483;DHT22;9882;51.166;6.992;2023-04-25T06:37:58;7.10;99.90
19483;DHT22;9882;51.166;6.992;2023-04-25T06:40:27;7.10;99.90
19483;DHT22;9882;51.166;6.992;2023-04-25T06:42:56;7.10;99.90
19483;DHT22;9882;51.166;6.992;2023-04-25T06:45:43;7.20;99.90
19483;DHT22;9882;51.166;6.992;2023-04-25T06:48:12;7.00;99.90
19483;DHT22;9882;51.166;6.992;2023-04-25T06:50:40;7.00;99.90
19483;DHT22;9882;51.166;6.992;2023-04-25T06:53:10;7.00;99.90
19483;DHT22;9882;51.166;6.992;2023-04-25T06:55:40;6.90;99.90
19483;DHT22;9882;51.166;6.992;2023-04-25T06:58:21;6.90;99.90
19483;DHT22;9882;51.166;6.992;2023-04-25T07:00:49;7.00;99.90
19483;DHT22;9882;51.166;6.992;2023-04-25T07:03:20;7.10;99.90
19483;DHT22;9882;51.166;6.992;2023-04-25T07:05:50;7.00;99.90
19483;DHT22;9882;51.166;6.992;2023-04-25T07:08:20;7.10;99.90
19483;DHT22;9882;51.166;6.992;2023-04-25T07:10:48;7.00;99.90
19483;DHT22;9882;51.166;6.992;2023-04-25T07:13:17;7.10;99.90
19483;DHT22;9882;51.166;6.992;2023-04-25T07:15:46;6.90;99.90
19483;DHT22;9882;51.166;6.992;2023-04-25T07:18:17;7.00;99.90
19483;DHT22;9882;51.166;6.992;2023-04-25T07:20:46;7.00;99.90
19483;DHT22;9882;51.166;6.992;2023-04-25T07:23:20;7.00;99.90
19483;DHT22;9882;51.166;6.992;2023-04-25T07:25:49;7.20;99.90
19483;DHT22;9882;51.166;6.992;2023-04-25T07:28:21;7.30;99.90
19483;DHT22;9882;51.166;6.992;2023-04-25T07:30:50;7.30;99.90
19483;DHT22;9882;51.166;6.992;2023-04-25T07:33:18;7.40;99.90
19483;DHT22;9882;51.166;6.992;2023-04-25T07:35:47;7.40;99.90
19483;DHT22;9882;51.166;6.992;2023-04-25T07:38:17;7.50;99.90
19483;DHT22;9882;51.166;6.992;2023-04-25T07:40:47;7.60;99.90
19483;DHT22;9882;51.166;6.992;2023-04-25T07:43:16;7.60;99.90
19483;DHT22;9882;51.166;6.992;2023-04-25T07:45:52;7.70;99.90
19483;DHT22;9882;51.166;6.992;2023-04-25T07:48:21;7.80;99.90
19483;DHT22;9882;51.166;6.992;2023-04-25T07:50:52;7.80;99.90
19483;DHT22;9882;51.166;6.992;2023-04-25T07:53:21;7.90;99.90
19483;DHT22;9882;51.166;6.992;2023-04-25T07:55:55;8.00;99.90
19483;DHT22;9882;51.166;6.992;2023-04-25T07:58:24;8.00;99.90
19483;DHT22;9882;51.166;6.992;2023-04-25T08:00:57;8.10;99.90
19483;DHT22;9882;51.166;6.992;2023-04-25T08:03:31;7.90;99.90
19483;DHT22;9882;51.166;6.992;2023-04-25T08:06:01;7.80;99.90
19483;DHT22;9882;51.166;6.992;2023-04-25T08:08:38;7.70;99.90
19483;DHT22;9882;51.166;6.992;2023-04-25T08:11:10;7.70;99.90
19483;DHT22;9882;51.166;6.992;2023-04-25T08:13:38;7.70;99.90
19483;DHT22;9882;51.166;6.992;2023-04-25T08:16:07;7.60;99.90
19483;DHT22;9882;51.166;6.992;2023-04-25T08:18:35;7.60;99.90
19483;DHT22;9882;51.166;6.992;2023-04-25T08:21:04;7.60;99.90
19483;DHT22;9882;51.166;6.992;2023-04-25T08:23:34;7.70;99.90
19483;DHT22;9882;51.166;6.992;2023-04-25T08:26:09;7.80;99.90
19483;DHT22;9882;51.166;6.992;2023-04-25T08:28:39;7.90;99.90
19483;DHT22;9882;51.166;6.992;2023-04-25T08:31:08;7.90;99.90
19483;DHT22;9882;51.166;6.992;2023-04-25T08:33:49;7.80;99.90
19483;DHT22;9882;51.166;6.992;2023-04-25T08:36:24;8.00;99.90
19483;DHT22;9882;51.166;6.992;2023-04-25T08:39:02;7.80;99.90
19483;DHT22;9882;51.166;6.992;2023-04-25T08:41:37;7.80;99.90
19483;DHT22;9882;51.166;6.992;2023-04-25T08:44:10;8.00;99.90
19483;DHT22;9882;51.166;6.992;2023-04-25T08:46:39;8.20;99.90
19483;DHT22;9882;51.166;6.992;2023-04-25T08:49:18;8.30;99.90
19483;DHT22;9882;51.166;6.992;2023-04-25T08:51:47;8.30;99.90
19483;DHT22;9882;51.166;6.992;2023-04-25T08:54:21;8.20;99.90
19483;DHT22;9882;51.166;6.992;2023-04-25T08:57:02;8.30;99.90
19483;DHT22;9882;51.166;6.992;2023-04-25T08:59:33;8.20;99.90
19483;DHT22;9882;51.166;6.992;2023-04-25T09:02:06;8.50;99.90
19483;DHT22;9882;51.166;6.992;2023-04-25T09:04:36;8.70;99.90
19483;DHT22;9882;51.166;6.992;2023-04-25T09:07:04;8.60;99.90
19483;DHT22;9882;51.166;6.992;2023-04-25T09:09:33;8.40;99.90
19483;DHT22;9882;51.166;6.992;2023-04-25T09:12:05;8.60;99.90
19483;DHT22;9882;51.166;6.992;2023-04-25T09:14:35;8.40;99.90
19483;DHT22;9882;51.166;6.992;2023-04-25T09:17:31;8.50;99.90
19483;DHT22;9882;51.166;6.992;2023-04-25T09:20:08;8.50;99.90
19483;DHT22;9882;51.166;6.992;2023-04-25T09:22:38;8.40;99.90
19483;DHT22;9882;51.166;6.992;2023-04-25T09:25:10;8.40;99.90
19483;DHT22;9882;51.166;6.992;2023-04-25T09:27:53;8.60;99.90
19483;DHT22;9882;51.166;6.992;2023-04-25T09:30:33;8.60;99.90
19483;DHT22;9882;51.166;6.992;2023-04-25T09:33:10;8.80;99.90
19483;DHT22;9882;51.166;6.992;2023-04-25T09:35:44;8.90;99.90
19483;DHT22;9882;51.166;6.992;2023-04-25T09:38:21;8.90;99.90
19483;DHT22;9882;51.166;6.992;2023-04-25T09:40:59;8.90;99.90
19483;DHT22;9882;51.166;6.992;2023-04-25T09:43:45;9.20;99.90
19483;DHT22;9882;51.166;6.992;2023-04-25T09:46:14;9.30;99.90
19483;DHT22;9882;51.166;6.992;2023-04-25T09:48:50;9.20;99.90
19483;DHT22;9882;51.166;6.992;2023-04-25T09:51:31;8.90;99.90
19483;DHT22;9882;51.166;6.992;2023-04-25T09:54:00;9.10;99.90
19483;DHT22;9882;51.166;6.992;2023-04-25T09:56:36;9.10;99.90
19483;DHT22;9882;51.166;6.992;2023-04-25T09:59:09;9.10;99.90
19483;DHT22;9882;51.166;6.992;2023-04-25T10:01:40;9.10;99.90
19483;DHT22;9882;51.166;6.992;2023-04-25T10:04:19;9.20;99.90
19483;DHT22;9882;51.166;6.992;2023-04-25T10:06:56;9.00;99.90
19483;DHT22;9882;51.166;6.992;2023-04-25T10:09:29;8.90;99.90
19483;DHT22;9882;51.166;6.992;2023-04-25T10:12:03;8.80;99.90
19483;DHT22;9882;51.166;6.992;2023-04-25T10:14:33;9.20;99.90
19483;DHT22;9882;51.166;6.992;2023-04-25T10:17:02;9.40;99.90
19483;DHT22;9882;51.166;6.992;2023-04-25T10:19:30;9.60;99.90
19483;DHT22;9882;51.166;6.992;2023-04-25T10:22:06;9.50;99.90
19483;DHT22;9882;51.166;6.992;2023-04-25T10:24:35;9.60;99.90
19483;DHT22;9882;51.166;6.992;2023-04-25T10:27:05;9.70;99.90
19483;DHT22;9882;51.166;6.992;2023-04-25T10:29:35;9.70;99.90
19483;DHT22;9882;51.166;6.992;2023-04-25T10:32:04;9.80;99.90
19483;DHT22;9882;51.166;6.992;2023-04-25T10:34:40;9.40;99.90
19483;DHT22;9882;51.166;6.992;2023-04-25T10:37:10;9.60;99.90
19483;DHT22;9882;51.166;6.992;2023-04-25T10:39:39;9.70;99.90
19483;DHT22;9882;51.166;6.992;2023-04-25T10:42:08;9.60;99.90
19483;DHT22;9882;51.166;6.992;2023-04-25T10:44:38;9.50;99.90
19483;DHT22;9882;51.166;6.992;2023-04-25T10:47:08;9.70;99.90
19483;DHT22;9882;51.166;6.992;2023-04-25T10:49:41;9.30;99.90
19483;DHT22;9882;51.166;6.992;2023-04-25T10:52:18;9.40;99.90
19483;DHT22;9882;51.166;6.992;2023-04-25T10:54:47;9.50;99.90
19483;DHT22;9882;51.166;6.992;2023-04-25T10:57:28;9.50;99.90
19483;DHT22;9882;51.166;6.992;2023-04-25T11:00:06;9.70;99.90
19483;DHT22;9882;51.166;6.992;2023-04-25T11:02:44;9.70;99.90
19483;DHT22;9882;51.166;6.992;2023-04-25T11:05:23;9.60;99.90
19483;DHT22;9882;51.166;6.992;2023-04-25T11:07:53;9.50;99.90
19483;DHT22;9882;51.166;6.992;2023-04-25T11:10:27;9.50;99.90
19483;DHT22;9882;51.166;6.992;2023-04-25T11:12:56;9.50;99.90
19483;DHT22;9882;51.166;6.992;2023-04-25T11:15:26;9.70;99.90
19483;DHT22;9882;51.166;6.992;2023-04-25T11:17:55;9.60;99.90
19483;DHT22;9882;51.166;6.992;2023-04-25T11:20:26;9.40;99.90
19483;DHT22;9882;51.166;6.992;2023-04-25T11:22:58;9.60;99.90
19483;DHT22;9882;51.166;6.992;2023-04-25T11:25:28;9.80;99.90
19483;DHT22;9882;51.166;6.992;2023-04-25T11:27:59;10.00;99.90
19483;DHT22;9882;51.166;6.992;2023-04-25T11:30:30;10.30;99.90
19483;DHT22;9882;51.166;6.992;2023-04-25T11:32:58;10.40;99.90
19483;DHT22;9882;51.166;6.992;2023-04-25T11:35:27;10.40;99.90
19483;DHT22;9882;51.166;6.992;2023-04-25T11:37:55;10.30;99.90
19483;DHT22;9882;51.166;6.992;2023-04-25T11:40:24;10.10;99.90
19483;DHT22;9882;51.166;6.992;2023-04-25T11:42:53;10.00;99.90
19483;DHT22;9882;51.166;6.992;2023-04-25T11:45:23;10.10;99.90
19483;DHT22;9882;51.166;6.992;2023-04-25T11:47:53;9.80;99.90
19483;DHT22;9882;51.166;6.992;2023-04-25T11:50:22;10.10;99.90
19483;DHT22;9882;51.166;6.992;2023-04-25T11:52:50;10.10;99.90
19483;DHT22;9882;51.166;6.992;2023-04-25T11:55:20;10.00;99.90
19483;DHT22;9882;51.166;6.992;2023-04-25T11:57:49;10.30;99.90
19483;DHT22;9882;51.166;6.992;2023-04-25T12:00:20;10.50;99.90
19483;DHT22;9882;51.166;6.992;2023-04-25T12:02:53;10.80;99.90
19483;DHT22;9882;51.166;6.992;2023-04-25T12:05:24;10.60;99.90
19483;DHT22;9882;51.166;6.992;2023-04-25T12:07:58;10.50;99.90
19483;DHT22;9882;51.166;6.992;2023-04-25T12:10:26;10.50;99.90
19483;DHT22;9882;51.166;6.992;2023-04-25T12:12:55;10.70;99.90
19483;DHT22;9882;51.166;6.992;2023-04-25T12:15:24;11.00;99.90
19483;DHT22;9882;51.166;6.992;2023-04-25T12:17:55;10.40;99.90
19483;DHT22;9882;51.166;6.992;2023-04-25T12:20:25;10.80;99.90
19483;DHT22;9882;51.166;6.992;2023-04-25T12:22:54;10.80;99.90
19483;DHT22;9882;51.166;6.992;2023-04-25T12:25:35;10.50;99.90
19483;DHT22;9882;51.166;6.992;2023-04-25T12:28:12;10.60;99.90
19483;DHT22;9882;51.166;6.992;2023-04-25T12:31:02;10.50;99.90
19483;DHT22;9882;51.166;6.992;2023-04-25T12:33:34;10.40;99.90
19483;DHT22;9882;51.166;6.992;2023-04-25T12:36:05;10.40;99.90
19483;DHT22;9882;51.166;6.992;2023-04-25T12:38:37;10.30;99.90
19483;DHT22;9882;51.166;6.992;2023-04-25T12:41:06;10.40;99.90
19483;DHT22;9882;51.166;6.992;2023-04-25T12:43:35;10.50;99.90
19483;DHT22;9882;51.166;6.992;2023-04-25T12:46:04;10.50;99.90
19483;DHT22;9882;51.166;6.992;2023-04-25T12:48:34;10.20;99.90
19483;DHT22;9882;51.166;6.992;2023-04-25T12:51:02;10.00;99.90
19483;DHT22;9882;51.166;6.992;2023-04-25T12:53:31;9.90;99.90
19483;DHT22;9882;51.166;6.992;2023-04-25T12:56:00;9.80;99.90
19483;DHT22;9882;51.166;6.992;2023-04-25T12:58:28;9.70;99.90
19483;DHT22;9882;51.166;6.992;2023-04-25T13:00:57;9.40;99.90
19483;DHT22;9882;51.166;6.992;2023-04-25T13:03:25;9.40;99.90
19483;DHT22;9882;51.166;6.992;2023-04-25T13:05:55;9.70;99.90
19483;DHT22;9882;51.166;6.992;2023-04-25T13:08:24;9.90;99.90
19483;DHT22;9882;51.166;6.992;2023-04-25T13:10:52;10.40;99.90
19483;DHT22;9882;51.166;6.992;2023-04-25T13:13:20;10.30;99.90
19483;DHT22;9882;51.166;6.992;2023-04-25T13:15:49;10.60;99.90
19483;DHT22;9882;51.166;6.992;2023-04-25T13:18:18;9.70;99.90
19483;DHT22;9882;51.166;6.992;2023-04-25T13:20:46;10.60;99.90
19483;DHT22;9882;51.166;6.992;2023-04-25T13:23:16;10.50;99.90
19483;DHT22;9882;51.166;6.992;2023-04-25T13:25:45;11.00;99.90
19483;DHT22;9882;51.166;6.992;2023-04-25T13:28:14;11.30;99.90
19483;DHT22;9882;51.166;6.992;2023-04-25T13:30:43;11.30;99.90
19483;DHT22;9882;51.166;6.992;2023-04-25T13:33:12;10.80;99.90
19483;DHT22;9882;51.166;6.992;2023-04-25T13:35:41;10.50;99.90
19483;DHT22;9882;51.166;6.992;2023-04-25T13:38:10;10.60;99.90
19483;DHT22;9882;51.166;6.992;2023-04-25T13:40:40;10.30;99.90
19483;DHT22;9882;51.166;6.992;2023-04-25T13:43:08;10.40;99.90
19483;DHT22;9882;51.166;6.992;2023-04-25T13:45:37;10.10;99.90
19483;DHT22;9882;51.166;6.992;2023-04-25T13:48:05;9.90;99.90
19483;DHT22;9882;51.166;6.992;2023-04-25T13:50:34;10.20;99.90
19483;DHT22;9882;51.166;6.992;2023-04-25T13:53:02;10.00;99.90
19483;DHT22;9882;51.166;6.992;2023-04-25T13:55:31;10.40;99.90
19483;DHT22;9882;51.166;6.992;2023-04-25T13:58:01;10.20;99.90
19483;DHT22;9882;51.166;6.992;2023-04-25T14:00:36;10.80;99.90
19483;DHT22;9882;51.166;6.992;2023-04-25T14:03:05;11.00;99.90
19483;DHT22;9882;51.166;6.992;2023-04-25T14:05:37;11.70;99.90
19483;DHT22;9882;51.166;6.992;2023-04-25T14:08:07;12.20;99.90
19483;DHT22;9882;51.166;6.992;2023-04-25T14:10:36;12.50;99.90
19483;DHT22;9882;51.166;6.992;2023-04-25T14:13:06;12.60;99.90
19483;DHT22;9882;51.166;6.992;2023-04-25T14:15:35;12.10;99.90
19483;DHT22;9882;51.166;6.992;2023-04-25T14:18:04;11.30;99.90
19483;DHT22;9882;51.166;6.992;2023-04-25T14:20:32;11.10;99.90
19483;DHT22;9882;51.166;6.992;2023-04-25T14:23:01;11.10;99.90
19483;DHT22;9882;51.166;6.992;2023-04-25T14:25:30;11.20;99.90
19483;DHT22;9882;51.166;6.992;2023-04-25T14:27:58;11.70;99.90
19483;DHT22;9882;51.166;6.992;2023-04-25T14:30:28;11.50;99.90
19483;DHT22;9882;51.166;6.992;2023-04-25T14:32:57;12.40;99.90
19483;DHT22;9882;51.166;6.992;2023-04-25T14:35:25;13.10;99.90
19483;DHT22;9882;51.166;6.992;2023-04-25T14:37:54;13.80;99.90
19483;DHT22;9882;51.166;6.992;2023-04-25T14:40:23;14.40;99.90
19483;DHT22;9882;51.166;6.992;2023-04-25T14:42:52;14.00;99.90
19483;DHT22;9882;51.166;6.992;2023-04-25T14:45:20;13.60;99.90
19483;DHT22;9882;51.166;6.992;2023-04-25T14:47:50;12.80;99.90
19483;DHT22;9882;51.166;6.992;2023-04-25T14:50:19;12.40;99.90
19483;DHT22;9882;51.166;6.992;2023-04-25T14:52:47;12.70;99.90
19483;DHT22;9882;51.166;6.992;2023-04-25T14:55:22;12.50;99.90
19483;DHT22;9882;51.166;6.992;2023-04-25T14:57:51;12.10;99.90
19483;DHT22;9882;51.166;6.992;2023-04-25T15:00:19;12.40;99.90
19483;DHT22;9882;51.166;6.992;2023-04-25T15:02:50;11.90;99.90
19483;DHT22;9882;51.166;6.992;2023-04-25T15:05:19;12.20;99.90
19483;DHT22;9882;51.166;6.992;2023-04-25T15:07:47;11.80;99.90
19483;DHT22;9882;51.166;6.992;2023-04-25T15:10:17;11.60;99.90
19483;DHT22;9882;51.166;6.992;2023-04-25T15:12:46;12.00;99.90
19483;DHT22;9882;51.166;6.992;2023-04-25T15:15:15;12.10;99.90
19483;DHT22;9882;51.166;6.992;2023-04-25T15:17:53;11.20;99.90
19483;DHT22;9882;51.166;6.992;2023-04-25T15:20:24;12.70;99.90
19483;DHT22;9882;51.166;6.992;2023-04-25T15:22:54;13.80;99.90
19483;DHT22;9882;51.166;6.992;2023-04-25T15:25:23;14.80;99.90
19483;DHT22;9882;51.166;6.992;2023-04-25T15:27:52;14.00;99.90
19483;DHT22;9882;51.166;6.992;2023-04-25T15:30:20;14.50;99.90
19483;DHT22;9882;51.166;6.992;2023-04-25T15:32:49;14.40;99.90
19483;DHT22;9882;51.166;6.992;2023-04-25T15:35:19;13.60;99.90
19483;DHT22;9882;51.166;6.992;2023-04-25T15:37:47;13.40;99.90
19483;DHT22;9882;51.166;6.992;2023-04-25T15:40:17;13.50;99.90
19483;DHT22;9882;51.166;6.992;2023-04-25T15:42:48;13.20;99.90
19483;DHT22;9882;51.166;6.992;2023-04-25T15:45:18;12.70;99.90
19483;DHT22;9882;51.166;6.992;2023-04-25T15:47:48;11.40;99.90
19483;DHT22;9882;51.166;6.992;2023-04-25T15:50:19;11.40;99.90
19483;DHT22;9882;51.166;6.992;2023-04-25T15:52:48;11.20;99.90
19483;DHT22;9882;51.166;6.992;2023-04-25T15:55:17;11.70;99.90
19483;DHT22;9882;51.166;6.992;2023-04-25T15:57:48;11.40;99.90
19483;DHT22;9882;51.166;6.992;2023-04-25T16:00:18;11.30;99.90
19483;DHT22;9882;51.166;6.992;2023-04-25T16:02:48;11.50;99.90
19483;DHT22;9882;51.166;6.992;2023-04-25T16:05:18;12.00;99.90
19483;DHT22;9882;51.166;6.992;2023-04-25T16:07:47;13.30;99.90
19483;DHT22;9882;51.166;6.992;2023-04-25T16:10:18;14.40;99.90
19483;DHT22;9882;51.166;6.992;2023-04-25T16:12:48;14.70;99.90
19483;DHT22;9882;51.166;6.992;2023-04-25T16:15:17;13.70;99.90
19483;DHT22;9882;51.166;6.992;2023-04-25T16:17:45;13.90;99.90
19483;DHT22;9882;51.166;6.992;2023-04-25T16:20:14;12.80;99.90
19483;DHT22;9882;51.166;6.992;2023-04-25T16:22:44;13.30;99.90
19483;DHT22;9882;51.166;6.992;2023-04-25T16:25:13;12.90;99.90
19483;DHT22;9882;51.166;6.992;2023-04-25T16:27:42;13.00;99.90
19483;DHT22;9882;51.166;6.992;2023-04-25T16:30:11;12.50;99.90
19483;DHT22;9882;51.166;6.992;2023-04-25T16:32:40;12.70;99.90
19483;DHT22;9882;51.166;6.992;2023-04-25T16:35:10;11.90;99.90
19483;DHT22;9882;51.166;6.992;2023-04-25T16:37:38;11.80;99.90
19483;DHT22;9882;51.166;6.992;2023-04-25T16:40:09;11.50;99.90
19483;DHT22;9882;51.166;6.992;2023-04-25T16:42:37;11.20;99.90
19483;DHT22;9882;51.166;6.992;2023-04-25T16:45:07;10.80;99.90
19483;DHT22;9882;51.166;6.992;2023-04-25T16:47:35;10.40;99.90
19483;DHT22;9882;51.166;6.992;2023-04-25T16:50:05;11.00;99.90
19483;DHT22;9882;51.166;6.992;2023-04-25T16:52:34;10.40;99.90
19483;DHT22;9882;51.166;6.992;2023-04-25T16:55:02;10.80;99.90
19483;DHT22;9882;51.166;6.992;2023-04-25T16:57:33;10.60;99.90
19483;DHT22;9882;51.166;6.992;2023-04-25T17:00:04;10.80;99.90
19483;DHT22;9882;51.166;6.992;2023-04-25T17:02:37;10.70;99.90
19483;DHT22;9882;51.166;6.992;2023-04-25T17:05:10;10.90;99.90
19483;DHT22;9882;51.166;6.992;2023-04-25T17:07:41;10.30;99.90
19483;DHT22;9882;51.166;6.992;2023-04-25T17:10:15;10.20;99.90
19483;DHT22;9882;51.166;6.992;2023-04-25T17:12:51;10.30;99.90
19483;DHT22;9882;51.166;6.992;2023-04-25T17:15:25;10.60;99.90
19483;DHT22;9882;51.166;6.992;2023-04-25T17:17:55;10.10;99.90
19483;DHT22;9882;51.166;6.992;2023-04-25T17:20:27;10.10;99.90
19483;DHT22;9882;51.166;6.992;2023-04-25T17:22:55;10.40;99.90
19483;DHT22;9882;51.166;6.992;2023-04-25T17:25:24;10.40;99.90
19483;DHT22;9882;51.166;6.992;2023-04-25T17:27:54;10.70;99.90
19483;DHT22;9882;51.166;6.992;2023-04-25T17:30:22;10.70;99.90
19483;DHT22;9882;51.166;6.992;2023-04-25T17:32:51;10.60;99.90
19483;DHT22;9882;51.166;6.992;2023-04-25T17:35:19;10.40;99.90
19483;DHT22;9882;51.166;6.992;2023-04-25T17:37:49;10.20;99.90
19483;DHT22;9882;51.166;6.992;2023-04-25T17:40:19;10.60;99.90
19483;DHT22;9882;51.166;6.992;2023-04-25T17:42:47;10.00;99.90
19483;DHT22;9882;51.166;6.992;2023-04-25T17:45:17;10.40;99.90
19483;DHT22;9882;51.166;6.992;2023-04-25T17:47:46;10.90;99.90
19483;DHT22;9882;51.166;6.992;2023-04-25T17:50:14;10.40;99.90
19483;DHT22;9882;51.166;6.992;2023-04-25T17:52:43;10.50;99.90
19483;DHT22;9882;51.166;6.992;2023-04-25T17:55:14;10.60;99.90
19483;DHT22;9882;51.166;6.992;2023-04-25T17:57:42;10.70;99.90
19483;DHT22;9882;51.166;6.992;2023-04-25T18:00:12;10.60;99.90
19483;DHT22;9882;51.166;6.992;2023-04-25T18:02:43;10.40;99.90
19483;DHT22;9882;51.166;6.992;2023-04-25T18:05:13;10.30;99.90
19483;DHT22;9882;51.166;6.992;2023-04-25T18:07:42;9.60;99.90
19483;DHT22;9882;51.166;6.992;2023-04-25T18:10:11;9.60;99.90
19483;DHT22;9882;51.166;6.992;2023-04-25T18:12:39;9.80;99.90
19483;DHT22;9882;51.166;6.992;2023-04-25T18:15:09;9.60;99.90
19483;DHT22;9882;51.166;6.992;2023-04-25T18:17:38;9.50;99.90
19483;DHT22;9882;51.166;6.992;2023-04-25T18:20:10;9.30;99.90
19483;DHT22;9882;51.166;6.992;2023-04-25T18:22:42;9.80;99.90
19483;DHT22;9882;51.166;6.992;2023-04-25T18:25:11;10.10;99.90
19483;DHT22;9882;51.166;6.992;2023-04-25T18:27:40;10.00;99.90
19483;DHT22;9882;51.166;6.992;2023-04-25T18:30:10;9.40;99.90
19483;DHT22;9882;51.166;6.992;2023-04-25T18:32:38;10.00;99.90
19483;DHT22;9882;51.166;6.992;2023-04-25T18:35:09;9.60;99.90
19483;DHT22;9882;51.166;6.992;2023-04-25T18:37:38;9.60;99.90